sensor_id;sensor_type;location;lat;lon;timestamp;temperature;humidity
51811;DHT22;52468;40.116;18.296;2023-05-07T00:02:24;15.00;70.90
51811;DHT22;52468;40.116;18.296;2023-05-07T00:04:51;15.00;70.90
51811;DHT22;52468;40.116;18.296;2023-05-07T00:07:19;15.00;71.10
51811;DHT22;52468;40.116;18.296;2023-05-07T00:09:47;15.00;71.20
51811;DHT22;52468;40.116;18.296;2023-05-07T00:12:15;15.00;71.10
51811;DHT22;52468;40.116;18.296;2023-05-07T00:14:43;15.00;71.10
51811;DHT22;52468;40.116;18.296;2023-05-07T00:17:10;15.00;70.90
51811;DHT22;52468;40.116;18.296;2023-05-07T00:19:38;15.00;70.90
51811;DHT22;52468;40.116;18.296;2023-05-07T00:22:08;15.00;70.90
51811;DHT22;52468;40.116;18.296;2023-05-07T00:24:35;15.00;71.10
51811;DHT22;52468;40.116;18.296;2023-05-07T00:27:03;15.00;71.20
51811;DHT22;52468;40.116;18.296;2023-05-07T00:29:31;15.00;71.20
51811;DHT22;52468;40.116;18.296;2023-05-07T00:31:59;15.00;71.20
51811;DHT22;52468;40.116;18.296;2023-05-07T00:34:26;15.00;71.20
51811;DHT22;52468;40.116;18.296;2023-05-07T00:36:54;14.90;71.40
51811;DHT22;52468;40.116;18.296;2023-05-07T00:39:22;14.80;71.50
51811;DHT22;52468;40.116;18.296;2023-05-07T00:41:50;14.70;71.70
51811;DHT22;52468;40.116;18.296;2023-05-07T00:44:18;14.70;71.90
51811;DHT22;52468;40.116;18.296;2023-05-07T00:46:46;14.70;71.80
51811;DHT22;52468;40.116;18.296;2023-05-07T00:49:18;14.70;72.00
51811;DHT22;52468;40.116;18.296;2023-05-07T00:51:46;14.70;72.10
51811;DHT22;52468;40.116;18.296;2023-05-07T00:54:14;14.60;72.20
51811;DHT22;52468;40.116;18.296;2023-05-07T00:56:42;14.60;72.50
51811;DHT22;52468;40.116;18.296;2023-05-07T00:59:10;14.60;72.60
51811;DHT22;52468;40.116;18.296;2023-05-07T01:01:38;14.60;72.60
51811;DHT22;52468;40.116;18.296;2023-05-07T01:04:06;14.70;72.30
51811;DHT22;52468;40.116;18.296;2023-05-07T01:06:34;14.70;72.40
51811;DHT22;52468;40.116;18.296;2023-05-07T01:09:02;14.70;72.40
51811;DHT22;52468;40.116;18.296;2023-05-07T01:11:32;14.80;72.30
51811;DHT22;52468;40.116;18.296;2023-05-07T01:14:00;14.70;72.50
51811;DHT22;52468;40.116;18.296;2023-05-07T01:16:28;14.70;72.50
51811;DHT22;52468;40.116;18.296;2023-05-07T01:18:56;14.70;72.50
51811;DHT22;52468;40.116;18.296;2023-05-07T01:21:26;14.70;72.60
51811;DHT22;52468;40.116;18.296;2023-05-07T01:23:57;14.70;72.60
51811;DHT22;52468;40.116;18.296;2023-05-07T01:26:26;14.60;72.70
51811;DHT22;52468;40.116;18.296;2023-05-07T01:28:53;14.60;72.90
51811;DHT22;52468;40.116;18.296;2023-05-07T01:31:22;14.60;72.90
51811;DHT22;52468;40.116;18.296;2023-05-07T01:33:52;14.60;73.00
51811;DHT22;52468;40.116;18.296;2023-05-07T01:36:20;14.50;73.10
51811;DHT22;52468;40.116;18.296;2023-05-07T01:38:50;14.50;73.10
51811;DHT22;52468;40.116;18.296;2023-05-07T01:41:19;14.50;73.10
51811;DHT22;52468;40.116;18.296;2023-05-07T01:43:49;14.60;73.00
51811;DHT22;52468;40.116;18.296;2023-05-07T01:46:17;14.50;73.10
51811;DHT22;52468;40.116;18.296;2023-05-07T01:48:46;14.50;73.20
51811;DHT22;52468;40.116;18.296;2023-05-07T01:51:14;14.50;73.10
51811;DHT22;52468;40.116;18.296;2023-05-07T01:53:42;14.50;73.20
51811;DHT22;52468;40.116;18.296;2023-05-07T01:56:11;14.50;73.00
51811;DHT22;52468;40.116;18.296;2023-05-07T01:58:40;14.50;72.90
51811;DHT22;52468;40.116;18.296;2023-05-07T02:01:08;14.50;72.90
51811;DHT22;52468;40.116;18.296;2023-05-07T02:03:37;14.40;73.00
51811;DHT22;52468;40.116;18.296;2023-05-07T02:06:11;14.40;73.10
51811;DHT22;52468;40.116;18.296;2023-05-07T02:08:40;14.30;73.20
51811;DHT22;52468;40.116;18.296;2023-05-07T02:11:08;14.30;73.20
51811;DHT22;52468;40.116;18.296;2023-05-07T02:13:36;14.30;73.40
51811;DHT22;52468;40.116;18.296;2023-05-07T02:16:05;14.30;73.40
51811;DHT22;52468;40.116;18.296;2023-05-07T02:18:33;14.20;73.40
51811;DHT22;52468;40.116;18.296;2023-05-07T02:21:01;14.20;73.50
51811;DHT22;52468;40.116;18.296;2023-05-07T02:23:29;14.20;73.60
51811;DHT22;52468;40.116;18.296;2023-05-07T02:25:57;14.10;73.80
51811;DHT22;52468;40.116;18.296;2023-05-07T02:28:25;14.10;73.80
51811;DHT22;52468;40.116;18.296;2023-05-07T02:31:04;14.10;73.80
51811;DHT22;52468;40.116;18.296;2023-05-07T02:33:32;14.10;73.70
51811;DHT22;52468;40.116;18.296;2023-05-07T02:36:08;14.10;73.80
51811;DHT22;52468;40.116;18.296;2023-05-07T02:39:06;14.10;73.90
51811;DHT22;52468;40.116;18.296;2023-05-07T02:41:34;14.10;73.80
51811;DHT22;52468;40.116;18.296;2023-05-07T02:44:02;14.00;73.90
51811;DHT22;52468;40.116;18.296;2023-05-07T02:46:30;14.00;74.00
51811;DHT22;52468;40.116;18.296;2023-05-07T02:49:07;14.00;74.10
51811;DHT22;52468;40.116;18.296;2023-05-07T02:51:34;14.00;74.10
51811;DHT22;52468;40.116;18.296;2023-05-07T02:54:06;13.90;74.00
51811;DHT22;52468;40.116;18.296;2023-05-07T02:56:34;13.90;74.10
51811;DHT22;52468;40.116;18.296;2023-05-07T03:01:36;13.80;74.30
51811;DHT22;52468;40.116;18.296;2023-05-07T03:04:08;13.80;74.30
51811;DHT22;52468;40.116;18.296;2023-05-07T03:06:36;13.80;74.30
51811;DHT22;52468;40.116;18.296;2023-05-07T03:09:04;13.80;74.40
51811;DHT22;52468;40.116;18.296;2023-05-07T03:11:32;13.70;74.40
51811;DHT22;52468;40.116;18.296;2023-05-07T03:14:00;13.80;74.40
51811;DHT22;52468;40.116;18.296;2023-05-07T03:16:28;13.70;74.40
51811;DHT22;52468;40.116;18.296;2023-05-07T03:18:56;13.70;74.40
51811;DHT22;52468;40.116;18.296;2023-05-07T03:21:24;14.30;72.40
51811;DHT22;52468;40.116;18.296;2023-05-07T03:23:51;14.00;73.50
51811;DHT22;52468;40.116;18.296;2023-05-07T03:26:19;13.80;73.90
51811;DHT22;52468;40.116;18.296;2023-05-07T03:28:48;13.60;74.20
51811;DHT22;52468;40.116;18.296;2023-05-07T03:31:17;14.10;73.00
51811;DHT22;52468;40.116;18.296;2023-05-07T03:33:56;13.70;74.00
51811;DHT22;52468;40.116;18.296;2023-05-07T03:36:25;13.70;74.40
51811;DHT22;52468;40.116;18.296;2023-05-07T03:38:57;13.60;74.50
51811;DHT22;52468;40.116;18.296;2023-05-07T03:41:34;13.60;74.50
51811;DHT22;52468;40.116;18.296;2023-05-07T03:44:02;13.70;74.60
51811;DHT22;52468;40.116;18.296;2023-05-07T03:46:30;13.60;74.70
51811;DHT22;52468;40.116;18.296;2023-05-07T03:48:58;13.60;74.80
51811;DHT22;52468;40.116;18.296;2023-05-07T03:51:26;13.60;74.90
51811;DHT22;52468;40.116;18.296;2023-05-07T03:53:54;13.90;74.80
51811;DHT22;52468;40.116;18.296;2023-05-07T03:56:25;13.70;75.10
51811;DHT22;52468;40.116;18.296;2023-05-07T04:06:24;15.10;73.60
51811;DHT22;52468;40.116;18.296;2023-05-07T04:08:53;14.80;74.30
51811;DHT22;52468;40.116;18.296;2023-05-07T04:11:21;14.60;75.60
51811;DHT22;52468;40.116;18.296;2023-05-07T04:13:49;14.70;75.90
51811;DHT22;52468;40.116;18.296;2023-05-07T04:16:20;14.80;75.90
51811;DHT22;52468;40.116;18.296;2023-05-07T04:18:48;14.90;75.90
51811;DHT22;52468;40.116;18.296;2023-05-07T04:21:18;15.10;75.40
51811;DHT22;52468;40.116;18.296;2023-05-07T04:23:48;15.20;75.30
51811;DHT22;52468;40.116;18.296;2023-05-07T04:26:16;15.50;74.40
51811;DHT22;52468;40.116;18.296;2023-05-07T04:28:45;15.70;73.20
51811;DHT22;52468;40.116;18.296;2023-05-07T04:31:15;15.90;72.40
51811;DHT22;52468;40.116;18.296;2023-05-07T04:33:44;16.00;71.80
51811;DHT22;52468;40.116;18.296;2023-05-07T04:36:14;16.10;71.10
51811;DHT22;52468;40.116;18.296;2023-05-07T04:38:57;16.30;70.40
51811;DHT22;52468;40.116;18.296;2023-05-07T04:43:54;16.70;69.20
51811;DHT22;52468;40.116;18.296;2023-05-07T04:48:56;17.50;65.30
51811;DHT22;52468;40.116;18.296;2023-05-07T04:51:24;17.40;65.60
51811;DHT22;52468;40.116;18.296;2023-05-07T04:53:53;17.50;65.40
51811;DHT22;52468;40.116;18.296;2023-05-07T04:56:21;17.60;65.40
51811;DHT22;52468;40.116;18.296;2023-05-07T04:58:49;17.80;65.40
51811;DHT22;52468;40.116;18.296;2023-05-07T05:01:21;18.00;65.00
51811;DHT22;52468;40.116;18.296;2023-05-07T05:03:49;18.20;64.40
51811;DHT22;52468;40.116;18.296;2023-05-07T05:06:19;18.40;64.10
51811;DHT22;52468;40.116;18.296;2023-05-07T05:08:46;18.50;63.30
51811;DHT22;52468;40.116;18.296;2023-05-07T05:11:14;18.80;63.00
51811;DHT22;52468;40.116;18.296;2023-05-07T05:13:42;18.90;62.60
51811;DHT22;52468;40.116;18.296;2023-05-07T05:16:16;19.10;61.90
51811;DHT22;52468;40.116;18.296;2023-05-07T05:18:44;19.30;61.20
51811;DHT22;52468;40.116;18.296;2023-05-07T05:21:14;19.50;60.40
51811;DHT22;52468;40.116;18.296;2023-05-07T05:23:45;19.60;59.40
51811;DHT22;52468;40.116;18.296;2023-05-07T05:26:15;19.80;58.80
51811;DHT22;52468;40.116;18.296;2023-05-07T05:28:43;20.00;58.20
51811;DHT22;52468;40.116;18.296;2023-05-07T05:31:12;20.20;57.40
51811;DHT22;52468;40.116;18.296;2023-05-07T05:33:40;20.40;57.40
51811;DHT22;52468;40.116;18.296;2023-05-07T05:36:11;20.50;56.80
51811;DHT22;52468;40.116;18.296;2023-05-07T05:38:41;20.70;56.00
51811;DHT22;52468;40.116;18.296;2023-05-07T05:41:11;20.90;55.90
51811;DHT22;52468;40.116;18.296;2023-05-07T05:43:38;21.00;55.40
51811;DHT22;52468;40.116;18.296;2023-05-07T05:46:07;21.10;54.40
51811;DHT22;52468;40.116;18.296;2023-05-07T05:48:36;21.10;54.10
51811;DHT22;52468;40.116;18.296;2023-05-07T05:51:05;21.20;52.90
51811;DHT22;52468;40.116;18.296;2023-05-07T05:53:33;21.40;52.30
51811;DHT22;52468;40.116;18.296;2023-05-07T05:56:02;21.50;51.90
51811;DHT22;52468;40.116;18.296;2023-05-07T05:58:31;21.60;51.00
51811;DHT22;52468;40.116;18.296;2023-05-07T06:01:02;21.70;51.40
51811;DHT22;52468;40.116;18.296;2023-05-07T06:03:31;22.00;51.10
51811;DHT22;52468;40.116;18.296;2023-05-07T06:06:03;22.20;50.40
51811;DHT22;52468;40.116;18.296;2023-05-07T06:08:32;22.30;49.60
51811;DHT22;52468;40.116;18.296;2023-05-07T06:11:01;22.40;48.40
51811;DHT22;52468;40.116;18.296;2023-05-07T06:13:32;22.50;47.60
51811;DHT22;52468;40.116;18.296;2023-05-07T06:16:00;22.50;47.10
51811;DHT22;52468;40.116;18.296;2023-05-07T06:18:29;22.50;46.00
51811;DHT22;52468;40.116;18.296;2023-05-07T06:20:57;22.50;45.90
51811;DHT22;52468;40.116;18.296;2023-05-07T06:23:29;22.40;44.10
51811;DHT22;52468;40.116;18.296;2023-05-07T06:25:57;22.50;44.50
51811;DHT22;52468;40.116;18.296;2023-05-07T06:28:29;22.60;44.40
51811;DHT22;52468;40.116;18.296;2023-05-07T06:31:16;22.50;44.10
51811;DHT22;52468;40.116;18.296;2023-05-07T06:33:50;22.70;43.70
51811;DHT22;52468;40.116;18.296;2023-05-07T06:36:19;22.80;43.40
51811;DHT22;52468;40.116;18.296;2023-05-07T06:38:47;23.00;42.90
51811;DHT22;52468;40.116;18.296;2023-05-07T06:41:15;23.10;43.10
51811;DHT22;52468;40.116;18.296;2023-05-07T06:43:43;23.40;42.50
51811;DHT22;52468;40.116;18.296;2023-05-07T06:46:30;23.60;42.00
51811;DHT22;52468;40.116;18.296;2023-05-07T06:48:58;23.60;41.00
51811;DHT22;52468;40.116;18.296;2023-05-07T06:51:27;23.70;40.30
51811;DHT22;52468;40.116;18.296;2023-05-07T06:53:57;23.80;39.60
51811;DHT22;52468;40.116;18.296;2023-05-07T06:56:24;24.00;39.70
51811;DHT22;52468;40.116;18.296;2023-05-07T06:58:53;24.10;38.90
51811;DHT22;52468;40.116;18.296;2023-05-07T07:01:21;24.10;38.00
51811;DHT22;52468;40.116;18.296;2023-05-07T07:03:49;24.20;36.90
51811;DHT22;52468;40.116;18.296;2023-05-07T07:06:19;24.30;36.10
51811;DHT22;52468;40.116;18.296;2023-05-07T07:08:47;24.30;36.10
51811;DHT22;52468;40.116;18.296;2023-05-07T07:11:17;24.10;36.00
51811;DHT22;52468;40.116;18.296;2023-05-07T07:13:45;24.00;36.50
51811;DHT22;52468;40.116;18.296;2023-05-07T07:16:13;24.20;36.50
51811;DHT22;52468;40.116;18.296;2023-05-07T07:18:41;24.30;36.60
51811;DHT22;52468;40.116;18.296;2023-05-07T07:21:09;24.50;36.40
51811;DHT22;52468;40.116;18.296;2023-05-07T07:23:37;24.50;36.50
51811;DHT22;52468;40.116;18.296;2023-05-07T07:26:05;24.50;36.60
51811;DHT22;52468;40.116;18.296;2023-05-07T07:28:34;24.50;36.90
51811;DHT22;52468;40.116;18.296;2023-05-07T07:31:02;24.50;36.70
51811;DHT22;52468;40.116;18.296;2023-05-07T07:33:31;24.60;36.70
51811;DHT22;52468;40.116;18.296;2023-05-07T07:35:59;24.70;36.50
51811;DHT22;52468;40.116;18.296;2023-05-07T07:38:26;24.90;36.70
51811;DHT22;52468;40.116;18.296;2023-05-07T07:40:55;24.90;36.60
51811;DHT22;52468;40.116;18.296;2023-05-07T07:43:24;25.20;36.30
51811;DHT22;52468;40.116;18.296;2023-05-07T07:45:52;25.30;36.00
51811;DHT22;52468;40.116;18.296;2023-05-07T07:48:21;25.50;35.80
51811;DHT22;52468;40.116;18.296;2023-05-07T07:50:50;25.50;35.90
51811;DHT22;52468;40.116;18.296;2023-05-07T07:53:19;25.60;35.70
51811;DHT22;52468;40.116;18.296;2023-05-07T07:55:47;25.70;35.50
51811;DHT22;52468;40.116;18.296;2023-05-07T07:58:18;25.90;35.50
51811;DHT22;52468;40.116;18.296;2023-05-07T08:00:47;25.90;34.80
51811;DHT22;52468;40.116;18.296;2023-05-07T08:03:15;26.00;35.20
51811;DHT22;52468;40.116;18.296;2023-05-07T08:05:48;26.00;35.30
51811;DHT22;52468;40.116;18.296;2023-05-07T08:08:18;26.20;35.30
51811;DHT22;52468;40.116;18.296;2023-05-07T08:10:47;26.00;35.50
51811;DHT22;52468;40.116;18.296;2023-05-07T08:13:24;26.00;35.40
51811;DHT22;52468;40.116;18.296;2023-05-07T08:15:52;26.00;35.20
51811;DHT22;52468;40.116;18.296;2023-05-07T08:18:20;26.00;35.50
51811;DHT22;52468;40.116;18.296;2023-05-07T08:20:48;26.20;35.40
51811;DHT22;52468;40.116;18.296;2023-05-07T08:23:21;26.40;35.10
51811;DHT22;52468;40.116;18.296;2023-05-07T08:25:49;26.70;34.60
51811;DHT22;52468;40.116;18.296;2023-05-07T08:28:19;26.60;34.10
51811;DHT22;52468;40.116;18.296;2023-05-07T08:30:48;26.50;34.20
51811;DHT22;52468;40.116;18.296;2023-05-07T08:33:17;26.50;34.30
51811;DHT22;52468;40.116;18.296;2023-05-07T08:35:45;26.60;34.10
51811;DHT22;52468;40.116;18.296;2023-05-07T08:38:14;26.90;34.00
51811;DHT22;52468;40.116;18.296;2023-05-07T08:40:42;26.80;34.70
51811;DHT22;52468;40.116;18.296;2023-05-07T08:43:17;26.90;35.10
51811;DHT22;52468;40.116;18.296;2023-05-07T08:45:48;27.00;35.30
51811;DHT22;52468;40.116;18.296;2023-05-07T08:48:21;27.20;34.80
51811;DHT22;52468;40.116;18.296;2023-05-07T08:50:57;27.30;34.90
51811;DHT22;52468;40.116;18.296;2023-05-07T09:11:59;27.10;35.20
51811;DHT22;52468;40.116;18.296;2023-05-07T09:14:30;27.60;35.00
51811;DHT22;52468;40.116;18.296;2023-05-07T09:16:59;27.90;34.60
51811;DHT22;52468;40.116;18.296;2023-05-07T09:19:27;28.00;34.40
51811;DHT22;52468;40.116;18.296;2023-05-07T09:22:02;28.10;34.20
51811;DHT22;52468;40.116;18.296;2023-05-07T09:24:40;28.00;34.10
51811;DHT22;52468;40.116;18.296;2023-05-07T09:27:10;28.00;34.50
51811;DHT22;52468;40.116;18.296;2023-05-07T09:29:44;28.00;34.60
51811;DHT22;52468;40.116;18.296;2023-05-07T09:32:14;28.00;34.70
51811;DHT22;52468;40.116;18.296;2023-05-07T09:34:43;28.20;34.50
51811;DHT22;52468;40.116;18.296;2023-05-07T09:37:13;28.40;33.70
51811;DHT22;52468;40.116;18.296;2023-05-07T09:39:46;28.50;33.60
51811;DHT22;52468;40.116;18.296;2023-05-07T09:42:25;28.60;33.60
51811;DHT22;52468;40.116;18.296;2023-05-07T09:45:00;28.60;33.60
51811;DHT22;52468;40.116;18.296;2023-05-07T09:47:37;28.80;33.80
51811;DHT22;52468;40.116;18.296;2023-05-07T09:50:08;28.90;33.80
51811;DHT22;52468;40.116;18.296;2023-05-07T09:52:40;29.00;33.80
51811;DHT22;52468;40.116;18.296;2023-05-07T09:55:11;29.10;33.50
51811;DHT22;52468;40.116;18.296;2023-05-07T09:57:42;29.20;33.00
51811;DHT22;52468;40.116;18.296;2023-05-07T10:00:11;28.90;33.50
51811;DHT22;52468;40.116;18.296;2023-05-07T10:02:49;29.10;33.70
51811;DHT22;52468;40.116;18.296;2023-05-07T10:05:26;29.00;33.20
51811;DHT22;52468;40.116;18.296;2023-05-07T10:07:58;28.60;33.70
51811;DHT22;52468;40.116;18.296;2023-05-07T10:10:28;28.50;33.90
51811;DHT22;52468;40.116;18.296;2023-05-07T10:12:57;28.50;34.00
51811;DHT22;52468;40.116;18.296;2023-05-07T10:15:32;28.80;33.80
51811;DHT22;52468;40.116;18.296;2023-05-07T10:18:03;29.20;33.20
51811;DHT22;52468;40.116;18.296;2023-05-07T10:20:33;29.30;32.70
51811;DHT22;52468;40.116;18.296;2023-05-07T10:23:06;29.10;32.90
51811;DHT22;52468;40.116;18.296;2023-05-07T10:25:41;29.30;32.60
51811;DHT22;52468;40.116;18.296;2023-05-07T10:28:20;29.10;32.90
51811;DHT22;52468;40.116;18.296;2023-05-07T10:33:26;29.10;32.80
51811;DHT22;52468;40.116;18.296;2023-05-07T10:35:58;29.10;32.80
51811;DHT22;52468;40.116;18.296;2023-05-07T10:38:28;29.10;32.40
51811;DHT22;52468;40.116;18.296;2023-05-07T10:40:56;29.00;32.80
51811;DHT22;52468;40.116;18.296;2023-05-07T10:43:24;28.90;33.00
51811;DHT22;52468;40.116;18.296;2023-05-07T10:51:38;28.90;32.80
51811;DHT22;52468;40.116;18.296;2023-05-07T10:54:19;29.10;32.60
51811;DHT22;52468;40.116;18.296;2023-05-07T10:57:34;29.00;32.50
51811;DHT22;52468;40.116;18.296;2023-05-07T11:03:06;29.30;32.80
51811;DHT22;52468;40.116;18.296;2023-05-07T11:06:13;29.50;32.30
51811;DHT22;52468;40.116;18.296;2023-05-07T11:08:52;29.60;32.00
51811;DHT22;52468;40.116;18.296;2023-05-07T11:11:48;29.90;31.90
51811;DHT22;52468;40.116;18.296;2023-05-07T11:17:12;30.30;31.20
51811;DHT22;52468;40.116;18.296;2023-05-07T11:19:55;30.50;30.70
51811;DHT22;52468;40.116;18.296;2023-05-07T11:25:22;30.80;31.80
51811;DHT22;52468;40.116;18.296;2023-05-07T11:28:07;31.20;31.30
51811;DHT22;52468;40.116;18.296;2023-05-07T11:30:43;31.50;31.20
51811;DHT22;52468;40.116;18.296;2023-05-07T11:33:17;31.80;30.50
51811;DHT22;52468;40.116;18.296;2023-05-07T11:35:47;31.90;30.30
51811;DHT22;52468;40.116;18.296;2023-05-07T11:43:30;32.50;30.60
51811;DHT22;52468;40.116;18.296;2023-05-07T11:46:18;32.70;30.70
51811;DHT22;52468;40.116;18.296;2023-05-07T11:48:46;32.70;30.10
51811;DHT22;52468;40.116;18.296;2023-05-07T11:51:19;32.50;30.60
51811;DHT22;52468;40.116;18.296;2023-05-07T11:53:48;32.60;30.40
51811;DHT22;52468;40.116;18.296;2023-05-07T11:56:17;32.40;30.30
51811;DHT22;52468;40.116;18.296;2023-05-07T11:58:46;31.80;31.10
51811;DHT22;52468;40.116;18.296;2023-05-07T12:01:15;31.80;31.30
51811;DHT22;52468;40.116;18.296;2023-05-07T12:03:44;32.10;31.00
51811;DHT22;52468;40.116;18.296;2023-05-07T12:06:15;32.80;30.60
51811;DHT22;52468;40.116;18.296;2023-05-07T12:08:44;33.50;30.30
51811;DHT22;52468;40.116;18.296;2023-05-07T12:11:24;34.00;29.60
51811;DHT22;52468;40.116;18.296;2023-05-07T12:13:54;34.30;28.50
51811;DHT22;52468;40.116;18.296;2023-05-07T12:16:25;34.50;27.80
51811;DHT22;52468;40.116;18.296;2023-05-07T12:18:54;34.40;28.00
51811;DHT22;52468;40.116;18.296;2023-05-07T12:21:23;34.50;27.80
51811;DHT22;52468;40.116;18.296;2023-05-07T12:23:51;34.50;27.50
51811;DHT22;52468;40.116;18.296;2023-05-07T12:26:20;34.20;28.10
51811;DHT22;52468;40.116;18.296;2023-05-07T12:28:50;34.50;27.70
51811;DHT22;52468;40.116;18.296;2023-05-07T12:31:18;34.40;27.60
51811;DHT22;52468;40.116;18.296;2023-05-07T12:33:46;34.20;27.80
51811;DHT22;52468;40.116;18.296;2023-05-07T12:36:14;34.20;27.90
51811;DHT22;52468;40.116;18.296;2023-05-07T12:38:42;34.20;28.10
51811;DHT22;52468;40.116;18.296;2023-05-07T12:41:10;33.70;28.20
51811;DHT22;52468;40.116;18.296;2023-05-07T12:43:39;33.80;28.40
51811;DHT22;52468;40.116;18.296;2023-05-07T12:46:11;33.80;28.40
51811;DHT22;52468;40.116;18.296;2023-05-07T12:48:45;33.60;28.30
51811;DHT22;52468;40.116;18.296;2023-05-07T12:51:13;33.70;28.20
51811;DHT22;52468;40.116;18.296;2023-05-07T12:53:42;33.90;28.20
51811;DHT22;52468;40.116;18.296;2023-05-07T12:56:10;34.20;28.60
51811;DHT22;52468;40.116;18.296;2023-05-07T13:03:38;35.20;27.10
51811;DHT22;52468;40.116;18.296;2023-05-07T13:11:08;36.40;25.50
51811;DHT22;52468;40.116;18.296;2023-05-07T13:13:38;37.10;24.90
51811;DHT22;52468;40.116;18.296;2023-05-07T13:16:08;38.30;23.60
51811;DHT22;52468;40.116;18.296;2023-05-07T13:18:40;39.60;22.60
51811;DHT22;52468;40.116;18.296;2023-05-07T13:21:08;41.00;21.20
51811;DHT22;52468;40.116;18.296;2023-05-07T13:23:36;42.40;20.00
51811;DHT22;52468;40.116;18.296;2023-05-07T13:26:05;43.10;19.40
51811;DHT22;52468;40.116;18.296;2023-05-07T13:28:41;43.50;18.90
51811;DHT22;52468;40.116;18.296;2023-05-07T13:31:09;43.80;18.60
51811;DHT22;52468;40.116;18.296;2023-05-07T13:33:37;44.40;18.30
51811;DHT22;52468;40.116;18.296;2023-05-07T13:36:05;44.60;18.20
51811;DHT22;52468;40.116;18.296;2023-05-07T13:38:33;45.20;18.10
51811;DHT22;52468;40.116;18.296;2023-05-07T13:41:01;45.10;17.90
51811;DHT22;52468;40.116;18.296;2023-05-07T13:43:29;45.10;18.00
51811;DHT22;52468;40.116;18.296;2023-05-07T13:45:57;45.50;17.70
51811;DHT22;52468;40.116;18.296;2023-05-07T13:48:24;45.50;17.60
51811;DHT22;52468;40.116;18.296;2023-05-07T13:50:52;45.50;17.90
51811;DHT22;52468;40.116;18.296;2023-05-07T13:53:20;45.70;17.60
51811;DHT22;52468;40.116;18.296;2023-05-07T13:55:48;45.50;17.40
51811;DHT22;52468;40.116;18.296;2023-05-07T13:58:16;45.80;17.30
51811;DHT22;52468;40.116;18.296;2023-05-07T14:00:43;46.00;17.20
51811;DHT22;52468;40.116;18.296;2023-05-07T14:03:11;46.10;16.80
51811;DHT22;52468;40.116;18.296;2023-05-07T14:05:39;46.20;17.00
51811;DHT22;52468;40.116;18.296;2023-05-07T14:08:08;46.20;16.80
51811;DHT22;52468;40.116;18.296;2023-05-07T14:10:36;45.90;16.90
51811;DHT22;52468;40.116;18.296;2023-05-07T14:13:03;44.50;17.60
51811;DHT22;52468;40.116;18.296;2023-05-07T14:15:32;43.80;18.30
51811;DHT22;52468;40.116;18.296;2023-05-07T14:18:00;43.80;18.60
51811;DHT22;52468;40.116;18.296;2023-05-07T14:20:29;44.10;18.10
51811;DHT22;52468;40.116;18.296;2023-05-07T14:22:58;44.20;17.80
51811;DHT22;52468;40.116;18.296;2023-05-07T14:25:26;44.20;17.70
51811;DHT22;52468;40.116;18.296;2023-05-07T14:27:54;44.40;17.60
51811;DHT22;52468;40.116;18.296;2023-05-07T14:30:22;44.40;17.40
51811;DHT22;52468;40.116;18.296;2023-05-07T14:32:52;44.00;17.80
51811;DHT22;52468;40.116;18.296;2023-05-07T14:35:19;44.00;18.20
51811;DHT22;52468;40.116;18.296;2023-05-07T14:37:47;43.70;18.10
51811;DHT22;52468;40.116;18.296;2023-05-07T14:40:15;43.30;18.10
51811;DHT22;52468;40.116;18.296;2023-05-07T14:42:43;42.60;18.70
51811;DHT22;52468;40.116;18.296;2023-05-07T14:45:11;42.40;19.00
51811;DHT22;52468;40.116;18.296;2023-05-07T14:47:39;42.50;18.70
51811;DHT22;52468;40.116;18.296;2023-05-07T14:50:07;42.10;19.00
51811;DHT22;52468;40.116;18.296;2023-05-07T14:52:35;41.80;19.20
51811;DHT22;52468;40.116;18.296;2023-05-07T14:55:03;41.80;19.40
51811;DHT22;52468;40.116;18.296;2023-05-07T14:57:31;42.50;19.10
51811;DHT22;52468;40.116;18.296;2023-05-07T15:00:03;43.40;18.60
51811;DHT22;52468;40.116;18.296;2023-05-07T15:02:34;43.80;18.10
51811;DHT22;52468;40.116;18.296;2023-05-07T15:05:02;43.50;18.20
51811;DHT22;52468;40.116;18.296;2023-05-07T15:07:30;43.00;18.60
51811;DHT22;52468;40.116;18.296;2023-05-07T15:10:00;43.00;19.00
51811;DHT22;52468;40.116;18.296;2023-05-07T15:12:29;43.60;18.40
51811;DHT22;52468;40.116;18.296;2023-05-07T15:14:59;44.20;17.80
51811;DHT22;52468;40.116;18.296;2023-05-07T15:17:27;44.80;17.50
51811;DHT22;52468;40.116;18.296;2023-05-07T15:19:55;45.00;17.20
51811;DHT22;52468;40.116;18.296;2023-05-07T15:22:23;44.80;17.10
51811;DHT22;52468;40.116;18.296;2023-05-07T15:24:51;44.90;17.10
51811;DHT22;52468;40.116;18.296;2023-05-07T15:27:19;44.70;17.30
51811;DHT22;52468;40.116;18.296;2023-05-07T15:29:47;44.70;17.30
51811;DHT22;52468;40.116;18.296;2023-05-07T15:32:15;44.70;16.90
51811;DHT22;52468;40.116;18.296;2023-05-07T15:34:43;44.50;16.80
51811;DHT22;52468;40.116;18.296;2023-05-07T15:37:12;44.50;17.20
51811;DHT22;52468;40.116;18.296;2023-05-07T15:39:40;44.50;16.90
51811;DHT22;52468;40.116;18.296;2023-05-07T15:42:08;44.50;16.90
51811;DHT22;52468;40.116;18.296;2023-05-07T15:44:35;44.20;16.70
51811;DHT22;52468;40.116;18.296;2023-05-07T15:47:04;43.80;17.00
51811;DHT22;52468;40.116;18.296;2023-05-07T15:49:32;43.30;17.50
51811;DHT22;52468;40.116;18.296;2023-05-07T15:52:00;42.80;17.60
51811;DHT22;52468;40.116;18.296;2023-05-07T15:54:29;41.50;18.40
51811;DHT22;52468;40.116;18.296;2023-05-07T15:56:56;40.30;19.50
51811;DHT22;52468;40.116;18.296;2023-05-07T15:59:25;39.60;20.00
51811;DHT22;52468;40.116;18.296;2023-05-07T16:01:52;39.50;20.30
51811;DHT22;52468;40.116;18.296;2023-05-07T16:04:21;39.40;20.60
51811;DHT22;52468;40.116;18.296;2023-05-07T16:06:49;39.40;20.70
51811;DHT22;52468;40.116;18.296;2023-05-07T16:09:17;39.60;20.80
51811;DHT22;52468;40.116;18.296;2023-05-07T16:11:45;40.20;20.60
51811;DHT22;52468;40.116;18.296;2023-05-07T16:14:12;40.50;20.40
51811;DHT22;52468;40.116;18.296;2023-05-07T16:16:40;40.40;20.40
51811;DHT22;52468;40.116;18.296;2023-05-07T16:19:08;40.10;20.90
51811;DHT22;52468;40.116;18.296;2023-05-07T16:21:36;40.30;20.90
51811;DHT22;52468;40.116;18.296;2023-05-07T16:24:04;40.70;20.50
51811;DHT22;52468;40.116;18.296;2023-05-07T16:26:33;40.80;20.20
51811;DHT22;52468;40.116;18.296;2023-05-07T16:29:02;40.90;19.60
51811;DHT22;52468;40.116;18.296;2023-05-07T16:31:30;40.60;19.50
51811;DHT22;52468;40.116;18.296;2023-05-07T16:33:59;40.00;19.90
51811;DHT22;52468;40.116;18.296;2023-05-07T16:36:27;38.00;21.60
51811;DHT22;52468;40.116;18.296;2023-05-07T16:38:58;36.00;23.60